createdAt,value
2018-06-12T00:02:01.232Z,18.57
2018-06-12T00:04:29.612Z,17.50
2018-06-12T00:06:58.002Z,16.07
2018-06-12T00:09:26.437Z,16.13
2018-06-12T00:11:54.828Z,15.10
2018-06-12T00:14:23.208Z,20.53
2018-06-12T00:16:51.865Z,15.80
2018-06-12T00:19:20.253Z,20.47
2018-06-12T00:21:48.667Z,18.17
2018-06-12T00:24:17.053Z,17.60
2018-06-12T00:26:45.432Z,17.40
2018-06-12T00:29:13.823Z,16.27
2018-06-12T00:31:42.301Z,18.33
2018-06-12T00:34:10.665Z,18.53
2018-06-12T00:36:39.297Z,19.33
2018-06-12T00:39:08.580Z,19.50
2018-06-12T00:41:37.018Z,17.43
2018-06-12T00:44:05.433Z,17.60
2018-06-12T00:46:33.797Z,18.73
2018-06-12T00:49:02.205Z,23.10
2018-06-12T00:51:30.909Z,27.87
2018-06-12T00:53:58.977Z,20.73
2018-06-12T00:56:38.717Z,20.53
2018-06-12T00:59:07.085Z,23.13
2018-06-12T01:01:35.477Z,20.70
2018-06-12T01:04:03.892Z,21.53
2018-06-12T01:06:32.285Z,23.30
2018-06-12T01:09:00.917Z,23.77
2018-06-12T01:11:29.389Z,22.17
2018-06-12T01:13:57.772Z,21.27
2018-06-12T01:16:26.348Z,24.27
2018-06-12T01:18:54.731Z,27.67
2018-06-12T01:21:23.115Z,22.47
2018-06-12T01:23:51.693Z,23.67
2018-06-12T01:26:20.080Z,24.50
2018-06-12T01:28:48.163Z,26.07
2018-06-12T01:31:16.554Z,21.70
2018-06-12T01:33:44.961Z,25.07
2018-06-12T01:36:13.350Z,26.03
2018-06-12T01:38:41.769Z,25.50
2018-06-12T01:41:10.152Z,25.67
2018-06-12T01:43:38.545Z,28.50
2018-06-12T01:46:07.206Z,27.40
2018-06-12T01:48:35.698Z,24.87
2018-06-12T01:51:04.156Z,24.17
2018-06-12T01:53:32.844Z,28.73
2018-06-12T01:56:01.224Z,23.63
2018-06-12T01:58:29.375Z,31.00
2018-06-12T02:00:58.814Z,23.50
2018-06-12T02:03:27.296Z,27.97
2018-06-12T02:05:55.992Z,25.53
2018-06-12T02:08:24.377Z,27.13
2018-06-12T02:10:52.763Z,27.20
2018-06-12T02:13:21.168Z,28.83
2018-06-12T02:15:49.552Z,27.50
2018-06-12T02:18:17.957Z,31.30
2018-06-12T02:20:46.721Z,26.43
2018-06-12T02:23:15.112Z,29.63
2018-06-12T02:25:43.485Z,28.53
2018-06-12T02:28:11.905Z,36.47
2018-06-12T02:30:40.303Z,27.03
2018-06-12T02:33:08.707Z,32.10
2018-06-12T02:35:37.314Z,31.80
2018-06-12T02:38:05.699Z,29.40
2018-06-12T02:40:34.106Z,25.53
2018-06-12T02:43:02.493Z,28.40
2018-06-12T02:45:30.878Z,25.67
2018-06-12T02:47:59.274Z,27.13
2018-06-12T02:50:27.660Z,31.23
2018-06-12T02:52:56.054Z,30.80
2018-06-12T02:55:24.456Z,33.27
2018-06-12T02:57:52.900Z,36.20
2018-06-12T03:00:21.298Z,26.83
2018-06-12T03:02:49.668Z,40.77
2018-06-12T03:05:18.052Z,37.60
2018-06-12T03:07:46.636Z,30.30
2018-06-12T03:10:15.021Z,32.10
2018-06-12T03:12:43.447Z,30.83
2018-06-12T03:15:11.932Z,29.33
2018-06-12T03:17:40.317Z,31.67
2018-06-12T03:20:08.980Z,34.57
2018-06-12T03:22:37.613Z,33.30
2018-06-12T03:25:06.017Z,38.10
2018-06-12T03:27:34.409Z,33.80
2018-06-12T03:30:02.809Z,30.90
2018-06-12T03:32:31.185Z,30.57
2018-06-12T03:34:59.621Z,33.07
2018-06-12T03:37:28.185Z,38.63
2018-06-12T03:39:56.561Z,36.00
2018-06-12T03:42:24.941Z,35.83
2018-06-12T03:44:53.350Z,32.60
2018-06-12T03:47:21.724Z,35.57
2018-06-12T03:49:50.104Z,33.23
2018-06-12T03:52:23.682Z,33.00
2018-06-12T03:54:52.304Z,30.93
2018-06-12T03:57:20.711Z,33.50
2018-06-12T03:59:49.089Z,30.47
2018-06-12T04:02:17.496Z,33.93
2018-06-12T04:04:46.077Z,39.90
2018-06-12T04:07:14.436Z,36.27
2018-06-12T04:09:42.828Z,35.37
2018-06-12T04:12:11.280Z,36.80
2018-06-12T04:14:39.702Z,47.97
2018-06-12T04:17:08.096Z,38.57
2018-06-12T04:19:36.648Z,39.07
2018-06-12T04:22:05.017Z,34.93
2018-06-12T04:24:33.436Z,42.10
2018-06-12T04:27:01.828Z,38.07
2018-06-12T04:29:30.205Z,33.50
2018-06-12T04:31:58.580Z,33.50
2018-06-12T04:34:26.997Z,42.50
2018-06-12T04:36:55.380Z,38.53
2018-06-12T04:39:23.768Z,36.57
2018-06-12T04:41:52.172Z,36.30
2018-06-12T04:44:20.662Z,34.37
2018-06-12T04:46:50.312Z,34.93
2018-06-12T04:49:18.773Z,30.37
2018-06-12T04:51:47.165Z,37.70
2018-06-12T04:54:15.558Z,35.23
2018-06-12T04:56:44.021Z,37.27
2018-06-12T04:59:12.419Z,42.83
2018-06-12T05:01:40.825Z,37.37
2018-06-12T05:04:09.222Z,39.10
2018-06-12T05:06:37.639Z,40.97
2018-06-12T05:09:07.549Z,35.00
2018-06-12T05:11:36.189Z,38.30
2018-06-12T05:14:04.277Z,39.10
2018-06-12T05:16:32.660Z,39.67
2018-06-12T05:19:01.130Z,35.23
2018-06-12T05:21:29.503Z,40.60
2018-06-12T05:23:58.220Z,32.47
2018-06-12T05:26:26.609Z,34.80
2018-06-12T05:28:54.996Z,41.97
2018-06-12T05:31:23.414Z,36.80
2018-06-12T05:33:51.849Z,35.20
2018-06-12T05:36:20.236Z,36.60
2018-06-12T05:38:48.726Z,39.17
2018-06-12T05:41:17.140Z,45.90
2018-06-12T05:43:45.596Z,45.27
2018-06-12T05:46:14.037Z,42.57
2018-06-12T05:48:42.428Z,36.13
2018-06-12T05:51:10.828Z,34.20
2018-06-12T05:53:39.248Z,41.10
2018-06-12T05:56:07.650Z,36.23
2018-06-12T05:58:36.525Z,38.03
2018-06-12T06:01:05.161Z,40.97
2018-06-12T06:03:33.565Z,37.67
2018-06-12T06:06:01.952Z,35.63
2018-06-12T06:08:30.501Z,32.00
2018-06-12T06:10:58.904Z,40.07
2018-06-12T06:13:27.368Z,35.00
2018-06-12T06:15:55.816Z,30.57
2018-06-12T06:18:24.226Z,33.60
2018-06-12T06:20:52.609Z,36.27
2018-06-12T06:23:21.012Z,32.57
2018-06-12T06:25:49.415Z,34.67
2018-06-12T06:28:17.883Z,35.10
2018-06-12T06:30:46.295Z,33.60
2018-06-12T06:33:14.692Z,37.23
2018-06-12T06:35:43.121Z,33.53
2018-06-12T06:38:11.512Z,38.13
2018-06-12T06:40:39.917Z,33.33
2018-06-12T06:43:08.359Z,33.20
2018-06-12T06:45:36.783Z,39.77
2018-06-12T06:48:05.216Z,29.07
2018-06-12T06:50:33.617Z,29.33
2018-06-12T06:53:02.005Z,32.00
2018-06-12T06:55:30.413Z,37.23
2018-06-12T06:57:59.108Z,29.17
2018-06-12T07:00:27.500Z,31.27
2018-06-12T07:02:55.939Z,35.47
2018-06-12T07:05:24.336Z,31.37
2018-06-12T07:07:52.733Z,35.33
2018-06-12T07:10:21.152Z,36.90
2018-06-12T07:12:49.545Z,35.37
2018-06-12T07:15:17.937Z,34.50
2018-06-12T07:17:46.525Z,35.47
2018-06-12T07:20:24.985Z,32.00
2018-06-12T07:22:53.382Z,32.93
2018-06-12T07:25:21.772Z,32.63
2018-06-12T07:27:50.182Z,29.70
2018-06-12T07:30:18.572Z,33.83
2018-06-12T07:32:46.951Z,27.70
2018-06-12T07:35:15.336Z,30.17
2018-06-12T07:37:43.992Z,27.63
2018-06-12T07:40:12.373Z,29.40
2018-06-12T07:42:40.740Z,30.93
2018-06-12T07:45:09.149Z,21.27
2018-06-12T07:47:37.549Z,22.10
2018-06-12T07:50:06.179Z,22.07
2018-06-12T07:52:34.575Z,18.73
2018-06-12T07:55:03.036Z,19.13
2018-06-12T07:57:31.394Z,22.30
2018-06-12T08:00:00.662Z,19.10
2018-06-12T08:02:29.148Z,21.00
2018-06-12T08:04:57.556Z,20.13
2018-06-12T08:07:25.933Z,21.97
2018-06-12T08:09:54.534Z,21.73
2018-06-12T08:12:22.912Z,19.50
2018-06-12T08:14:51.288Z,17.33
2018-06-12T08:17:20.568Z,29.30
2018-06-12T08:19:48.963Z,19.03
2018-06-12T08:22:17.399Z,17.30
2018-06-12T08:24:45.777Z,15.20
2018-06-12T08:27:14.202Z,17.10
2018-06-12T08:29:42.722Z,15.67
2018-06-12T08:32:11.015Z,15.17
2018-06-12T08:34:39.401Z,17.33
2018-06-12T08:37:07.811Z,16.20
2018-06-12T08:39:36.176Z,16.47
2018-06-12T08:42:04.617Z,16.73
2018-06-12T08:44:33.027Z,12.83
2018-06-12T08:47:01.413Z,12.53
2018-06-12T08:49:29.792Z,16.27
2018-06-12T08:51:58.197Z,11.20
2018-06-12T08:54:26.588Z,13.50
2018-06-12T08:56:54.993Z,12.10
2018-06-12T08:59:23.387Z,13.60
2018-06-12T09:01:51.829Z,14.07
2018-06-12T09:04:20.237Z,16.10
2018-06-12T09:06:48.676Z,11.30
2018-06-12T09:09:17.064Z,14.90
2018-06-12T09:11:45.630Z,14.40
2018-06-12T09:14:14.031Z,16.10
2018-06-12T09:16:42.745Z,10.83
2018-06-12T09:19:11.158Z,17.80
2018-06-12T09:21:39.569Z,14.13
2018-06-12T09:24:07.969Z,15.60
2018-06-12T09:26:36.625Z,13.13
2018-06-12T09:29:05.037Z,13.10
2018-06-12T09:31:33.537Z,13.37
2018-06-12T09:34:01.945Z,13.90
2018-06-12T09:36:35.426Z,11.93
2018-06-12T09:39:08.188Z,11.77
2018-06-12T09:41:37.005Z,18.00
2018-06-12T09:44:05.505Z,13.77
2018-06-12T09:46:33.892Z,16.30
2018-06-12T09:49:02.404Z,9.33
2018-06-12T09:51:32.997Z,17.33
2018-06-12T09:54:01.435Z,11.77
2018-06-12T09:56:29.844Z,12.10
2018-06-12T09:58:58.249Z,11.57
2018-06-12T10:01:26.648Z,15.17
2018-06-12T10:03:55.130Z,10.13
2018-06-12T10:06:23.533Z,16.90
2018-06-12T10:08:51.922Z,15.80
2018-06-12T10:11:20.448Z,12.83
2018-06-12T10:13:48.835Z,13.80
2018-06-12T10:16:17.313Z,13.43
2018-06-12T10:18:45.767Z,16.27
2018-06-12T10:21:14.194Z,17.00
2018-06-12T10:23:42.592Z,16.70
2018-06-12T10:26:11.063Z,13.30
2018-06-12T10:28:39.470Z,10.30
2018-06-12T10:31:07.910Z,12.10
2018-06-12T10:33:36.342Z,10.93
2018-06-12T10:36:04.848Z,16.27
2018-06-12T10:38:33.480Z,12.87
2018-06-12T10:41:01.904Z,13.53
2018-06-12T10:43:30.312Z,17.07
2018-06-12T10:45:58.925Z,10.83
2018-06-12T10:48:27.309Z,14.40
2018-06-12T10:50:55.683Z,16.80
2018-06-12T10:53:24.304Z,16.77
2018-06-12T10:55:52.680Z,17.63
2018-06-12T10:58:21.085Z,13.07
2018-06-12T11:00:49.505Z,16.60
2018-06-12T11:03:17.900Z,13.77
2018-06-12T11:05:46.288Z,10.10
2018-06-12T11:08:14.941Z,16.10
2018-06-12T11:10:43.377Z,18.13
2018-06-12T11:13:11.730Z,34.27
2018-06-12T11:15:40.177Z,13.30
2018-06-12T11:18:08.568Z,18.00
2018-06-12T11:20:37.091Z,16.50
2018-06-12T11:23:05.827Z,15.63
2018-06-12T11:25:34.212Z,25.23
2018-06-12T11:28:02.793Z,18.30
2018-06-12T11:30:31.368Z,21.50
2018-06-12T11:32:59.807Z,15.37
2018-06-12T11:35:28.164Z,21.13
2018-06-12T11:37:56.568Z,16.87
2018-06-12T11:40:24.976Z,16.20
2018-06-12T11:42:53.369Z,20.23
2018-06-12T11:45:21.808Z,17.67
2018-06-12T11:47:50.220Z,18.70
2018-06-12T11:50:18.637Z,27.83
2018-06-12T11:52:47.024Z,18.97
2018-06-12T11:55:15.626Z,17.53
2018-06-12T11:57:44.073Z,23.43
2018-06-12T12:00:12.501Z,19.80
2018-06-12T12:02:40.890Z,15.33
2018-06-12T12:05:09.882Z,12.47
2018-06-12T12:07:38.276Z,14.53
2018-06-12T12:10:06.673Z,12.70
2018-06-12T12:12:35.085Z,14.77
2018-06-12T12:15:03.561Z,22.97
2018-06-12T12:17:31.999Z,22.43
2018-06-12T12:20:00.436Z,13.30
2018-06-12T12:22:28.828Z,18.30
2018-06-12T12:24:57.272Z,16.83
2018-06-12T12:27:25.698Z,14.77
2018-06-12T12:29:54.099Z,19.77
2018-06-12T12:32:22.168Z,20.63
2018-06-12T12:34:50.568Z,15.00
2018-06-12T12:37:19.000Z,15.67
2018-06-12T12:39:47.454Z,26.43
2018-06-12T12:42:15.828Z,16.00
2018-06-12T12:44:44.258Z,17.60
2018-06-12T12:47:12.684Z,17.17
2018-06-12T12:49:41.089Z,18.53
2018-06-12T12:52:10.174Z,19.00
2018-06-12T12:54:38.698Z,16.80
2018-06-12T12:57:07.100Z,22.57
2018-06-12T12:59:35.504Z,19.33
2018-06-12T13:02:03.967Z,19.40
2018-06-12T13:04:32.468Z,16.70
2018-06-12T13:07:00.864Z,22.07
2018-06-12T13:09:29.276Z,15.00
2018-06-12T13:11:57.764Z,18.53
2018-06-12T13:14:26.188Z,19.33
2018-06-12T13:16:54.784Z,15.83
2018-06-12T13:19:23.192Z,15.93
2018-06-12T13:21:51.738Z,15.67
2018-06-12T13:24:20.157Z,17.87
2018-06-12T13:26:48.557Z,16.80
2018-06-12T13:29:16.955Z,13.67
2018-06-12T13:31:45.361Z,21.30
2018-06-12T13:34:13.769Z,14.60
2018-06-12T13:36:42.176Z,19.43
2018-06-12T13:39:10.797Z,16.10
2018-06-12T13:41:39.210Z,18.20
2018-06-12T13:44:07.596Z,15.57
2018-06-12T13:46:35.998Z,17.37
2018-06-12T13:49:04.592Z,18.27
2018-06-12T13:51:32.976Z,17.20
2018-06-12T13:54:01.394Z,17.67
2018-06-12T13:56:29.807Z,17.73
2018-06-12T13:58:58.933Z,17.33
2018-06-12T14:01:28.021Z,15.07
2018-06-12T14:03:56.445Z,17.80
2018-06-12T14:06:25.074Z,15.57
2018-06-12T14:08:53.524Z,14.20
2018-06-12T14:11:21.945Z,15.50
2018-06-12T14:13:50.377Z,19.30
2018-06-12T14:16:18.822Z,16.30
2018-06-12T14:18:47.338Z,19.73
2018-06-12T14:21:15.772Z,22.63
2018-06-12T14:23:44.182Z,18.20
2018-06-12T14:26:12.334Z,20.37
2018-06-12T14:28:40.756Z,22.47
2018-06-12T14:31:09.158Z,19.17
2018-06-12T14:33:37.553Z,14.60
2018-06-12T14:36:06.001Z,20.00
2018-06-12T14:38:34.508Z,18.13
2018-06-12T14:41:02.923Z,16.57
2018-06-12T14:43:31.392Z,17.30
2018-06-12T14:45:59.797Z,16.00
2018-06-12T14:48:28.272Z,20.33
2018-06-12T14:50:57.036Z,23.40
2018-06-12T14:53:25.418Z,14.83
2018-06-12T14:55:53.834Z,20.50
2018-06-12T14:58:22.492Z,16.23
2018-06-12T15:00:50.893Z,17.43
2018-06-12T15:03:19.441Z,14.10
2018-06-12T15:05:48.024Z,17.13
2018-06-12T15:08:16.409Z,15.80
2018-06-12T15:10:44.845Z,17.77
2018-06-12T15:13:13.349Z,16.13
2018-06-12T15:15:41.781Z,18.27
2018-06-12T15:18:10.201Z,25.60
2018-06-12T15:20:38.911Z,21.10
2018-06-12T15:23:07.296Z,20.53
2018-06-12T15:25:35.727Z,22.97
2018-06-12T15:28:04.179Z,19.30
2018-06-12T15:30:32.606Z,18.47
2018-06-12T15:33:01.073Z,19.93
2018-06-12T15:35:29.684Z,15.50
2018-06-12T15:37:58.191Z,18.97
2018-06-12T15:40:26.602Z,14.30
2018-06-12T15:42:55.117Z,18.53
2018-06-12T15:45:23.581Z,19.07
2018-06-12T15:47:52.035Z,15.37
2018-06-12T15:50:20.515Z,15.33
2018-06-12T15:52:48.991Z,17.43
2018-06-12T15:55:17.525Z,16.10
2018-06-12T15:57:45.950Z,16.30
2018-06-12T16:00:14.477Z,13.13
2018-06-12T16:02:42.923Z,18.60
2018-06-12T16:05:11.552Z,13.87
2018-06-12T16:07:39.964Z,12.90
2018-06-12T16:10:08.385Z,15.83
2018-06-12T16:12:36.872Z,20.10
2018-06-12T16:15:05.286Z,13.57
2018-06-12T16:17:33.820Z,15.47
2018-06-12T16:20:02.261Z,13.40
2018-06-12T16:22:30.840Z,12.93
2018-06-12T16:24:59.433Z,13.83
2018-06-12T16:27:28.207Z,13.33
2018-06-12T16:29:56.771Z,13.57
2018-06-12T16:32:25.496Z,14.67
2018-06-12T16:34:54.194Z,14.97
2018-06-12T16:37:22.638Z,12.40
2018-06-12T16:39:51.180Z,15.37
2018-06-12T16:42:19.784Z,19.20
2018-06-12T16:44:48.214Z,15.70
2018-06-12T16:47:16.664Z,19.53
2018-06-12T16:49:45.125Z,15.43
2018-06-12T16:52:13.543Z,17.10
2018-06-12T16:54:42.039Z,18.87
2018-06-12T16:57:10.528Z,14.43
2018-06-12T16:59:39.036Z,22.20
2018-06-12T17:02:08.170Z,16.90
2018-06-12T17:04:36.568Z,15.40
2018-06-12T17:07:05.592Z,15.43
2018-06-12T17:09:35.012Z,15.67
2018-06-12T17:12:03.482Z,25.30
2018-06-12T17:14:31.938Z,15.60
2018-06-12T17:17:00.380Z,16.80
2018-06-12T17:19:28.815Z,15.70
2018-06-12T17:21:57.921Z,15.37
2018-06-12T17:24:27.293Z,14.97
2018-06-12T17:26:56.853Z,17.03
2018-06-12T17:29:25.324Z,17.63
2018-06-12T17:31:54.555Z,14.33
2018-06-12T17:34:23.006Z,16.30
2018-06-12T17:36:51.508Z,19.00
2018-06-12T17:39:20.036Z,17.60
2018-06-12T17:41:48.557Z,18.30
2018-06-12T17:44:17.092Z,24.13
2018-06-12T17:46:45.524Z,14.97
2018-06-12T17:49:13.937Z,15.20
2018-06-12T17:51:42.986Z,17.90
2018-06-12T17:54:11.527Z,12.70
2018-06-12T17:56:39.983Z,17.43
2018-06-12T17:59:08.772Z,13.20
2018-06-12T18:01:37.324Z,14.57
2018-06-12T18:04:06.198Z,12.63
2018-06-12T18:06:34.928Z,12.30
2018-06-12T18:09:04.525Z,12.90
2018-06-12T18:11:32.945Z,18.13
2018-06-12T18:14:02.009Z,13.37
2018-06-12T18:16:30.468Z,11.43
2018-06-12T18:18:58.892Z,14.60
2018-06-12T18:21:27.338Z,20.43
2018-06-12T18:23:55.860Z,14.00
2018-06-12T18:26:24.370Z,13.10
2018-06-12T18:28:52.949Z,14.20
2018-06-12T18:31:21.753Z,14.20
2018-06-12T18:33:50.345Z,11.77
2018-06-12T18:36:18.779Z,15.57
2018-06-12T18:38:47.220Z,11.23
2018-06-12T18:41:15.728Z,16.53
2018-06-12T18:43:44.279Z,13.40
2018-06-12T18:46:12.673Z,17.20
2018-06-12T18:48:41.188Z,15.93
2018-06-12T18:51:10.557Z,13.60
2018-06-12T18:53:39.009Z,14.60
2018-06-12T18:56:07.446Z,15.30
2018-06-12T18:58:35.797Z,12.77
2018-06-12T19:01:05.309Z,15.87
2018-06-12T19:03:33.793Z,12.60
2018-06-12T19:06:02.356Z,15.77
2018-06-12T19:08:30.828Z,16.27
2018-06-12T19:11:00.107Z,15.70
2018-06-12T19:13:28.544Z,22.20
2018-06-12T19:15:57.078Z,16.47
2018-06-12T19:18:25.611Z,14.43
2018-06-12T19:20:54.131Z,16.63
2018-06-12T19:23:23.471Z,21.30
2018-06-12T19:25:51.893Z,17.47
2018-06-12T19:28:20.436Z,13.77
2018-06-12T19:30:49.096Z,14.47
2018-06-12T19:33:18.455Z,16.70
2018-06-12T19:35:47.007Z,17.67
2018-06-12T19:38:15.622Z,15.03
2018-06-12T19:40:44.122Z,18.07
2018-06-12T19:43:12.529Z,11.67
2018-06-12T19:45:41.034Z,17.03
2018-06-12T19:48:09.485Z,14.57
2018-06-12T19:50:37.929Z,16.27
2018-06-12T19:53:06.457Z,15.10
2018-06-12T19:55:35.651Z,10.73
2018-06-12T19:58:05.437Z,11.10
2018-06-12T20:00:34.039Z,10.97
2018-06-12T20:03:03.072Z,12.70
2018-06-12T20:05:32.471Z,11.00
2018-06-12T20:08:00.611Z,15.23
2018-06-12T20:10:29.217Z,12.93
2018-06-12T20:12:57.744Z,10.07
2018-06-12T20:15:25.848Z,12.60
2018-06-12T20:17:54.394Z,16.53
2018-06-12T20:20:23.047Z,15.17
2018-06-12T20:22:51.472Z,14.77
2018-06-12T20:25:19.975Z,10.73
2018-06-12T20:27:48.692Z,14.50
2018-06-12T20:30:17.100Z,16.67
2018-06-12T20:32:45.529Z,12.37
2018-06-12T20:35:13.977Z,25.87
2018-06-12T20:37:42.458Z,11.70
2018-06-12T20:40:10.907Z,14.63
2018-06-12T20:42:39.343Z,13.30
2018-06-12T20:45:08.045Z,13.50
2018-06-12T20:47:36.480Z,14.90
2018-06-12T20:50:04.956Z,11.50
2018-06-12T20:52:33.589Z,10.87
2018-06-12T20:55:01.962Z,14.87
2018-06-12T20:57:31.009Z,13.70
2018-06-12T20:59:59.528Z,16.50
2018-06-12T21:02:27.941Z,11.73
2018-06-12T21:04:56.392Z,9.87
2018-06-12T21:07:25.911Z,10.20
2018-06-12T21:09:54.293Z,9.53
2018-06-12T21:12:23.068Z,9.43
2018-06-12T21:14:51.460Z,10.33
2018-06-12T21:17:19.889Z,11.00
2018-06-12T21:19:48.705Z,8.80
2018-06-12T21:22:17.124Z,9.63
2018-06-12T21:24:45.504Z,12.63
2018-06-12T21:27:13.953Z,9.70
2018-06-12T21:29:42.348Z,12.60
2018-06-12T21:32:10.771Z,11.40
2018-06-12T21:34:39.373Z,12.00
2018-06-12T21:37:07.779Z,14.27
2018-06-12T21:39:36.233Z,13.47
2018-06-12T21:42:04.657Z,12.30
2018-06-12T21:44:33.048Z,16.67
2018-06-12T21:47:01.645Z,10.00
2018-06-12T21:49:30.041Z,14.23
2018-06-12T21:51:58.417Z,15.50
2018-06-12T21:54:27.161Z,13.50
2018-06-12T21:56:55.573Z,11.23
2018-06-12T21:59:23.960Z,12.13
2018-06-12T22:01:52.348Z,11.20
2018-06-12T22:04:20.782Z,11.13
2018-06-12T22:06:49.214Z,14.27
2018-06-12T22:09:17.617Z,11.90
2018-06-12T22:11:46.375Z,13.27
2018-06-12T22:14:15.221Z,13.17
2018-06-12T22:16:43.864Z,13.23
2018-06-12T22:19:11.940Z,14.83
2018-06-12T22:21:40.565Z,10.23
2018-06-12T22:24:09.207Z,11.77
2018-06-12T22:26:37.605Z,13.40
2018-06-12T22:29:05.974Z,8.50
2018-06-12T22:31:34.356Z,9.57
2018-06-12T22:34:02.755Z,11.63
2018-06-12T22:36:31.247Z,10.87
2018-06-12T22:38:59.665Z,9.93
2018-06-12T22:41:28.183Z,8.90
2018-06-12T22:43:56.722Z,10.63
2018-06-12T22:46:25.109Z,9.40
2018-06-12T22:48:53.914Z,8.83
2018-06-12T22:51:22.332Z,12.67
2018-06-12T22:53:50.726Z,10.50
2018-06-12T22:56:19.136Z,8.23
2018-06-12T22:58:47.709Z,9.17
2018-06-12T23:01:16.129Z,9.67
2018-06-12T23:03:44.513Z,7.37
2018-06-12T23:06:13.148Z,6.70
2018-06-12T23:08:41.667Z,12.13
2018-06-12T23:11:10.034Z,5.17
2018-06-12T23:13:38.688Z,10.37
2018-06-12T23:16:07.208Z,6.50
2018-06-12T23:18:35.592Z,5.57
2018-06-12T23:21:15.617Z,4.47
2018-06-12T23:23:44.100Z,9.33
2018-06-12T23:26:12.585Z,7.37
2018-06-12T23:28:40.688Z,6.20
2018-06-12T23:31:09.253Z,7.80
2018-06-12T23:33:37.641Z,6.73
2018-06-12T23:36:06.176Z,7.00
2018-06-12T23:38:34.676Z,7.77
2018-06-12T23:41:02.927Z,3.83
2018-06-12T23:43:31.517Z,3.70
2018-06-12T23:45:59.892Z,4.10
2018-06-12T23:48:28.308Z,7.07
2018-06-12T23:50:56.732Z,4.60
2018-06-12T23:53:25.097Z,4.60
2018-06-12T23:55:53.506Z,5.33
2018-06-12T23:58:22.125Z,5.30
